Flight Track Log - Related Links

Times and Time Zones

All times are in EDT time to prevent confusion due to time zone crossing. See the N960DL flight status page for this flight to view local times or setup timezone preferences in your user account.

Time Position Orientation Groundspeed Altitude Reporting Facility
EDT Latitude Longitude Course Direction KTS MPH feet Rate Location/Type
Thu 06:29:21 AM 43.0953 -77.7003 252° West 145 167 1,800  Level Cleveland Center
Thu 06:29:40 AM 43.0789 -77.7067 196° South 169 194 2,000 1,595 Climbing Cleveland Center
Thu 06:30:40 AM 43.0211 -77.7264 194° South 234 269 3,900 2,350 Climbing Cleveland Center
Thu 06:31:40 AM 42.9464 -77.7439 190° South 260 299 6,700 3,050 Climbing Cleveland Center
Thu 06:32:00 AM 42.6557 -77.7850 192° South  Level FlightAware Approximate
Thu 06:32:40 AM 42.8697 -77.7644 191° South 276 318 10,000  Level Cleveland Center
Thu 06:33:00 AM 42.5419 -77.8247 216° Southwest  Level FlightAware Approximate
Thu 06:33:40 AM 42.7869 -77.7822 189° South 296 341 11,600  Level Cleveland Center
Thu 06:34:00 AM 42.4887 -77.9506 252° West  Level FlightAware Approximate
Thu 06:34:40 AM 42.6833 -77.8067 190° South 335 386 13,300  Level Cleveland Center
Thu 06:35:40 AM 42.5756 -77.8342 191° South 376 433 15,900 2,350 Climbing Cleveland Center
Thu 06:36:40 AM 42.4894 -77.8997 209° Southwest 395 455 18,000 1,900 Climbing Cleveland Center
Thu 06:37:40 AM 42.4108 -78.0128 227° Southwest 395 455 19,700 1,700 Climbing Cleveland Center
Thu 06:38:40 AM 42.3300 -78.1283 227° Southwest 416 479 21,400 1,700 Climbing Cleveland Center
Thu 06:39:40 AM 42.2469 -78.2494 227° Southwest 429 494 23,100 1,750 Climbing Cleveland Center
Thu 06:40:40 AM 42.1597 -78.3675 225° Southwest 436 502 24,900 1,850 Climbing Cleveland Center
Thu 06:41:40 AM 42.0744 -78.4881 226° Southwest 442 509 26,800 1,900 Climbing Cleveland Center
Thu 06:42:40 AM 41.9911 -78.6108 228° Southwest 442 509 28,700 1,600 Climbing Cleveland Center
Thu 06:43:40 AM 41.9075 -78.7278 226° Southwest 437 503 30,000 650 Climbing Cleveland Center
Thu 06:44:40 AM 41.8239 -78.8444 226° Southwest 437 503 30,000 150 Level Cleveland Center
Thu 06:45:40 AM 41.7400 -78.9608 226° Southwest 437 503 30,300 800 Climbing Cleveland Center
Thu 06:46:40 AM 41.6583 -79.0769 227° Southwest 432 497 31,600 1,200 Climbing Cleveland Center
Thu 06:47:40 AM 41.5764 -79.1925 227° Southwest 432 497 32,700 900 Climbing Cleveland Center
Thu 06:48:40 AM 41.4942 -79.3053 226° Southwest 432 497 33,400 650 Climbing Cleveland Center
Thu 06:49:40 AM 41.4039 -79.4314 226° Southwest 432 497 34,000 300 Climbing Cleveland Center
Thu 06:50:40 AM 41.3217 -79.5408 225° Southwest 427 491 34,000  Level Cleveland Center
Thu 06:51:40 AM 41.2392 -79.6525 226° Southwest 427 491 34,000  Level Cleveland Center
Thu 06:52:40 AM 41.1567 -79.7614 225° Southwest 427 491 34,000  Level Cleveland Center
Thu 06:53:40 AM 41.0739 -79.8725 225° Southwest 427 491 34,000  Level Cleveland Center
Thu 06:54:40 AM 40.9933 -79.9833 226° Southwest 427 491 34,000  Level Cleveland Center
Thu 06:55:40 AM 40.9125 -80.0942 226° Southwest 427 491 34,000  Level Cleveland Center
Thu 06:56:40 AM 40.8275 -80.2044 224° Southwest 427 491 34,000  Level Cleveland Center
Thu 06:57:40 AM 40.7150 -80.2544 199° South 432 497 34,000  Level Cleveland Center
Thu 06:58:40 AM 40.5983 -80.2933 194° South 422 486 34,000  Level Cleveland Center
Thu 06:59:40 AM 40.4797 -80.3319 194° South 433 498 34,000  Level Cleveland Center
Thu 07:00:40 AM 40.3672 -80.3733 196° South 433 498 34,000  Level Cleveland Center
Thu 07:01:40 AM 40.2608 -80.4036 192° South 433 498 34,000  Level Cleveland Center
Thu 07:02:40 AM 40.1442 -80.4419 194° South 433 498 34,000  Level Cleveland Center
Thu 07:03:40 AM 40.0275 -80.4800 194° South 433 498 34,000  Level Cleveland Center
Thu 07:04:40 AM 39.9108 -80.5181 194° South 433 498 34,000  Level Cleveland Center
Thu 07:05:57 AM 39.7664 -80.5633 194° South 433 498 34,000  Level Indianapolis Center
Thu 07:06:59 AM 39.6381 -80.6483 207° Southwest 435 501 34,000  Level Indianapolis Center
Thu 07:08:00 AM 39.5392 -80.7381 215° Southwest 432 497 34,000  Level Indianapolis Center
Thu 07:09:01 AM 39.4386 -80.8247 214° Southwest 433 498 34,000  Level Indianapolis Center
Thu 07:10:02 AM 39.3472 -80.9264 221° Southwest 432 497 34,000  Level Indianapolis Center
Thu 07:11:03 AM 39.2558 -81.0314 222° Southwest 438 504 34,000  Level Indianapolis Center
Thu 07:12:04 AM 39.1653 -81.1381 222° Southwest 440 506 34,000  Level Indianapolis Center
Thu 07:13:05 AM 39.0678 -81.2322 217° Southwest 441 507 34,000  Level Indianapolis Center
Thu 07:14:07 AM 38.9603 -81.3108 210° Southwest 444 511 34,000  Level Indianapolis Center
Thu 07:15:08 AM 38.8533 -81.3914 210° Southwest 443 510 34,000  Level Indianapolis Center
Thu 07:16:09 AM 38.7214 -81.4667 204° Southwest 453 521 34,000  Level Indianapolis Center
Thu 07:17:10 AM 38.6028 -81.5211 200° South 452 520 34,000  Level Indianapolis Center
Thu 07:18:12 AM 38.4808 -81.5372 186° South 466 536 34,000  Level Indianapolis Center
Thu 07:19:13 AM 38.3542 -81.5533 186° South 458 527 34,000  Level Indianapolis Center
Thu 07:20:14 AM 38.2311 -81.5886 193° South 456 525 34,000  Level Indianapolis Center
Thu 07:21:15 AM 38.1131 -81.6444 200° South 450 518 34,000  Level Indianapolis Center
Thu 07:22:17 AM 37.9956 -81.7022 201° Southwest 451 519 34,000  Level Indianapolis Center
Thu 07:23:18 AM 37.8544 -81.7714 201° Southwest 451 519 34,000  Level Indianapolis Center
Thu 07:24:19 AM 37.7328 -81.8289 200° South 453 521 34,000  Level Indianapolis Center
Thu 07:25:20 AM 37.6142 -81.8878 201° Southwest 456 525 34,000  Level Indianapolis Center
Thu 07:26:22 AM 37.4989 -81.9461 202° Southwest 449 517 34,000  Level Indianapolis Center
Thu 07:27:23 AM 37.3811 -82.0042 201° Southwest 450 518 34,000  Level Indianapolis Center
Thu 07:28:24 AM 37.2642 -82.0633 202° Southwest 451 519 34,000  Level Indianapolis Center
Thu 07:29:25 AM 37.1486 -82.1200 201° Southwest 445 512 34,000  Level Indianapolis Center
Thu 07:30:27 AM 37.0328 -82.1772 202° Southwest 445 512 34,000  Level Indianapolis Center
Thu 07:31:28 AM 36.9156 -82.2344 201° Southwest 447 514 34,000  Level Indianapolis Center
Thu 07:32:30 AM 36.7989 -82.2917 201° Southwest 446 513 34,000  Level Indianapolis Center
Thu 07:33:31 AM 36.6822 -82.3478 201° Southwest 445 512 34,000  Level Indianapolis Center
Thu 07:34:32 AM 36.5642 -82.4050 201° Southwest 449 517 34,000  Level Indianapolis Center
Thu 07:35:34 AM 36.4475 -82.4625 202° Southwest 449 517 34,000  Level Indianapolis Center
Thu 07:36:35 AM 36.3108 -82.5303 202° Southwest 449 517 34,000  Level Indianapolis Center
Thu 07:37:37 AM 36.1942 -82.5858 201° Southwest 448 516 34,000  Level Indianapolis Center
Thu 07:38:38 AM 36.0778 -82.6428 202° Southwest 446 513 34,000  Level Indianapolis Center
Thu 07:39:39 AM 35.9611 -82.6986 201° Southwest 447 514 34,000  Level Indianapolis Center
Thu 07:40:41 AM 35.8453 -82.7553 202° Southwest 447 514 34,000  Level Indianapolis Center
Thu 07:41:44 AM 35.7267 -82.8133 202° Southwest 446 513 34,000  Level Atlanta Center
Thu 07:42:44 AM 35.6106 -82.8689 201° Southwest 446 513 34,000 -300 Level Atlanta Center
Thu 07:43:44 AM 35.5003 -82.9239 202° Southwest 446 513 33,400 -900 Descending Atlanta Center
Thu 07:44:44 AM 35.3925 -82.9967 209° Southwest 446 513 32,200 -1,200 Descending Atlanta Center
Thu 07:45:44 AM 35.2911 -83.0794 214° Southwest 446 513 31,000 -1,200 Descending Atlanta Center
Thu 07:46:44 AM 35.1769 -83.1722 214° Southwest 451 519 29,800 -950 Descending Atlanta Center
Thu 07:47:44 AM 35.0753 -83.2572 214° Southwest 451 519 29,100 -900 Descending Atlanta Center
Thu 07:48:44 AM 34.9672 -83.3442 213° Southwest 461 531 28,000 -1,000 Descending Atlanta Center
Thu 07:49:44 AM 34.8592 -83.4314 214° Southwest 461 531 27,100 -850 Descending Atlanta Center
Thu 07:50:44 AM 34.7553 -83.5156 214° Southwest 461 531 26,300 -1,300 Descending Atlanta Center
Thu 07:51:44 AM 34.6553 -83.5919 212° Southwest 453 521 24,500 -2,200 Descending Atlanta Center
Thu 07:52:44 AM 34.5597 -83.6731 215° Southwest 438 504 21,900 -2,400 Descending Atlanta Center
Thu 07:53:44 AM 34.4639 -83.7467 212° Southwest 422 486 19,700 -2,250 Descending Atlanta Center
Thu 07:54:44 AM 34.3742 -83.8172 213° Southwest 411 473 17,400 -2,350 Descending Atlanta Center
Thu 07:55:44 AM 34.2867 -83.8881 214° Southwest 399 459 15,000 -2,200 Descending Atlanta Center
Thu 07:56:44 AM 34.2011 -83.9558 213° Southwest 384 442 13,000 -1,350 Descending Atlanta Center
Thu 07:57:44 AM 34.1197 -84.0236 215° Southwest 372 428 12,300 -732 Descending Atlanta Center
Thu 07:58:06 AM 34.0833 -84.0500 211° Southwest 351 404 12,000 -205 Descending Atlanta TRACON
Thu 07:59:12 AM 34.0000 -84.1167 214° Southwest 356 410 12,000  Level Atlanta TRACON
Thu 07:59:44 AM 33.9653 -84.1539 222° Southwest 358 412 12,000  Level Atlanta Center
Thu 08:00:44 AM 33.8839 -84.2214 215° Southwest 358 412 12,000  Level Atlanta Center
Thu 08:01:06 AM 33.8500 -84.2500 215° Southwest 360 414 12,000  Level Atlanta TRACON
Thu 08:02:06 AM 33.7667 -84.3167 214° Southwest 310 357 12,000 -250 Level Atlanta TRACON
Thu 08:03:06 AM 33.7333 -84.3833 239° Southwest 270 311 11,500 -900 Descending Atlanta TRACON
Thu 08:04:06 AM 33.7333 -84.4667 270° West 253 291 10,200 -1,350 Descending Atlanta TRACON
Thu 08:05:06 AM 33.7333 -84.5500 270° West 239 275 8,800 -1,400 Descending Atlanta TRACON
Thu 08:06:06 AM 33.7333 -84.6333 270° West 236 272 7,400 -1,400 Descending Atlanta TRACON
Thu 08:07:06 AM 33.7333 -84.7000 270° West 233 268 6,000 -1,263 Descending Atlanta TRACON
Thu 08:08:00 AM 33.7333 -84.7833 270° West 223 257 5,000 -500 Descending Atlanta TRACON
Thu 08:09:06 AM 33.7167 -84.8500 253° West 227 261 5,000  Level Atlanta TRACON
Thu 08:10:06 AM 33.6500 -84.8500 180° South 210 242 5,000  Level Atlanta TRACON
Thu 08:11:06 AM 33.6500 -84.7833 90° East 209 241 5,000  Level Atlanta TRACON
Thu 08:12:06 AM 33.6500 -84.7167 90° East 209 241 5,000  Level Atlanta TRACON

Login

Don't have an account? Register now (free) for customized features, flight alerts, and more!